Terminal Aerodrome Forecast
Issued by NWS

Home | Current Version | Previous Version | Text Only | Print | Product List | Glossary On
Versions: 1 2 3 4 5 6 7 8 9 10 11 12 13 14 15 16 17 18
000
FTUS43 KDTX 051730
TAFMBS
TAF
KMBS 051730Z 0518/0618 28007KT P6SM SCT035
      TEMPO 0523/0603 BKN035
     FM060300 24005KT P6SM BKN035
     FM061400 22013KT P6SM BKN250=

USA.gov is the U.S. government's official web portal to all federal, state and local government web resources and services.